sensor_id;sensor_type;location;lat;lon;timestamp;P1;durP1;ratioP1;P2;durP2;ratioP2
15012;SDS011;7603;49.432;11.418;2023-05-21T00:00:46;11.68;;;10.80;;
15012;SDS011;7603;49.432;11.418;2023-05-21T00:03:12;11.32;;;10.43;;
15012;SDS011;7603;49.432;11.418;2023-05-21T00:05:40;11.73;;;10.70;;
15012;SDS011;7603;49.432;11.418;2023-05-21T00:08:10;15.00;;;10.80;;
15012;SDS011;7603;49.432;11.418;2023-05-21T00:10:38;11.88;;;10.98;;
15012;SDS011;7603;49.432;11.418;2023-05-21T00:13:05;13.23;;;11.98;;
15012;SDS011;7603;49.432;11.418;2023-05-21T00:15:35;11.45;;;10.45;;
15012;SDS011;7603;49.432;11.418;2023-05-21T00:18:01;11.35;;;10.55;;
15012;SDS011;7603;49.432;11.418;2023-05-21T00:20:30;11.75;;;10.82;;
15012;SDS011;7603;49.432;11.418;2023-05-21T00:22:58;11.73;;;10.80;;
15012;SDS011;7603;49.432;11.418;2023-05-21T00:25:27;11.48;;;10.32;;
15012;SDS011;7603;49.432;11.418;2023-05-21T00:27:53;10.48;;;9.77;;
15012;SDS011;7603;49.432;11.418;2023-05-21T00:30:20;11.80;;;10.80;;
15012;SDS011;7603;49.432;11.418;2023-05-21T00:32:48;10.95;;;10.00;;
15012;SDS011;7603;49.432;11.418;2023-05-21T00:35:14;11.38;;;10.52;;
15012;SDS011;7603;49.432;11.418;2023-05-21T00:37:41;10.88;;;9.90;;
15012;SDS011;7603;49.432;11.418;2023-05-21T00:40:07;11.57;;;10.68;;
15012;SDS011;7603;49.432;11.418;2023-05-21T00:42:35;11.15;;;10.10;;
15012;SDS011;7603;49.432;11.418;2023-05-21T00:45:07;11.25;;;10.43;;
15012;SDS011;7603;49.432;11.418;2023-05-21T00:47:33;12.20;;;11.35;;
15012;SDS011;7603;49.432;11.418;2023-05-21T00:50:05;11.43;;;10.63;;
15012;SDS011;7603;49.432;11.418;2023-05-21T00:52:32;11.20;;;10.30;;
15012;SDS011;7603;49.432;11.418;2023-05-21T00:55:05;11.80;;;10.80;;
15012;SDS011;7603;49.432;11.418;2023-05-21T00:57:32;11.77;;;10.60;;
15012;SDS011;7603;49.432;11.418;2023-05-21T00:59:58;12.52;;;11.63;;
15012;SDS011;7603;49.432;11.418;2023-05-21T01:02:24;9.90;;;9.20;;
15012;SDS011;7603;49.432;11.418;2023-05-21T01:04:50;12.10;;;11.18;;
15012;SDS011;7603;49.432;11.418;2023-05-21T01:07:19;13.30;;;12.02;;
15012;SDS011;7603;49.432;11.418;2023-05-21T01:09:45;12.27;;;11.00;;
15012;SDS011;7603;49.432;11.418;2023-05-21T01:12:11;12.25;;;11.20;;
15012;SDS011;7603;49.432;11.418;2023-05-21T01:14:38;12.02;;;10.93;;
15012;SDS011;7603;49.432;11.418;2023-05-21T01:17:05;13.02;;;11.93;;
15012;SDS011;7603;49.432;11.418;2023-05-21T01:19:34;12.07;;;11.18;;
15012;SDS011;7603;49.432;11.418;2023-05-21T01:22:03;12.07;;;11.10;;
15012;SDS011;7603;49.432;11.418;2023-05-21T01:24:30;12.75;;;11.45;;
15012;SDS011;7603;49.432;11.418;2023-05-21T01:26:55;13.25;;;12.07;;
15012;SDS011;7603;49.432;11.418;2023-05-21T01:29:22;13.13;;;11.93;;
15012;SDS011;7603;49.432;11.418;2023-05-21T01:37:21;14.57;;;12.07;;
15012;SDS011;7603;49.432;11.418;2023-05-21T01:39:51;13.00;;;11.82;;
15012;SDS011;7603;49.432;11.418;2023-05-21T01:42:22;12.77;;;11.77;;
15012;SDS011;7603;49.432;11.418;2023-05-21T01:44:52;12.93;;;11.73;;
15012;SDS011;7603;49.432;11.418;2023-05-21T01:47:22;12.15;;;11.15;;
15012;SDS011;7603;49.432;11.418;2023-05-21T01:49:49;13.32;;;12.00;;
15012;SDS011;7603;49.432;11.418;2023-05-21T01:52:15;13.80;;;12.57;;
15012;SDS011;7603;49.432;11.418;2023-05-21T01:54:41;13.00;;;11.98;;
15012;SDS011;7603;49.432;11.418;2023-05-21T01:57:06;13.43;;;12.13;;
15012;SDS011;7603;49.432;11.418;2023-05-21T01:59:32;12.82;;;11.70;;
15012;SDS011;7603;49.432;11.418;2023-05-21T02:01:58;13.60;;;12.38;;
15012;SDS011;7603;49.432;11.418;2023-05-21T02:04:24;13.23;;;12.02;;
15012;SDS011;7603;49.432;11.418;2023-05-21T02:06:49;13.88;;;11.38;;
15012;SDS011;7603;49.432;11.418;2023-05-21T02:09:15;13.32;;;12.00;;
15012;SDS011;7603;49.432;11.418;2023-05-21T02:11:41;12.73;;;11.82;;
15012;SDS011;7603;49.432;11.418;2023-05-21T02:14:07;12.50;;;11.52;;
15012;SDS011;7603;49.432;11.418;2023-05-21T02:16:34;12.43;;;11.52;;
15012;SDS011;7603;49.432;11.418;2023-05-21T02:19:00;13.68;;;12.27;;
15012;SDS011;7603;49.432;11.418;2023-05-21T02:21:25;12.43;;;11.45;;
15012;SDS011;7603;49.432;11.418;2023-05-21T02:23:51;13.35;;;12.32;;
15012;SDS011;7603;49.432;11.418;2023-05-21T02:26:17;14.57;;;13.43;;
15012;SDS011;7603;49.432;11.418;2023-05-21T02:28:42;13.00;;;11.98;;
15012;SDS011;7603;49.432;11.418;2023-05-21T02:31:08;13.23;;;12.07;;
15012;SDS011;7603;49.432;11.418;2023-05-21T02:33:34;13.32;;;12.13;;
15012;SDS011;7603;49.432;11.418;2023-05-21T02:36:00;13.52;;;12.43;;
15012;SDS011;7603;49.432;11.418;2023-05-21T02:38:25;13.80;;;12.60;;
15012;SDS011;7603;49.432;11.418;2023-05-21T02:40:51;15.02;;;13.50;;
15012;SDS011;7603;49.432;11.418;2023-05-21T02:43:17;13.07;;;11.88;;
15012;SDS011;7603;49.432;11.418;2023-05-21T02:45:42;13.02;;;12.02;;
15012;SDS011;7603;49.432;11.418;2023-05-21T02:48:08;13.88;;;12.68;;
15012;SDS011;7603;49.432;11.418;2023-05-21T02:50:33;14.38;;;13.13;;
15012;SDS011;7603;49.432;11.418;2023-05-21T02:52:59;13.27;;;12.18;;
15012;SDS011;7603;49.432;11.418;2023-05-21T02:55:25;13.55;;;12.30;;
15012;SDS011;7603;49.432;11.418;2023-05-21T02:57:50;15.05;;;13.85;;
15012;SDS011;7603;49.432;11.418;2023-05-21T03:00:16;14.90;;;12.90;;
15012;SDS011;7603;49.432;11.418;2023-05-21T03:02:42;14.25;;;12.93;;
15012;SDS011;7603;49.432;11.418;2023-05-21T03:05:07;13.90;;;12.70;;
15012;SDS011;7603;49.432;11.418;2023-05-21T03:07:34;14.95;;;13.65;;
15012;SDS011;7603;49.432;11.418;2023-05-21T03:09:59;15.10;;;13.68;;
15012;SDS011;7603;49.432;11.418;2023-05-21T03:12:25;14.63;;;13.07;;
15012;SDS011;7603;49.432;11.418;2023-05-21T03:14:51;14.23;;;12.93;;
15012;SDS011;7603;49.432;11.418;2023-05-21T03:17:17;14.10;;;13.00;;
15012;SDS011;7603;49.432;11.418;2023-05-21T03:19:43;14.75;;;13.55;;
15012;SDS011;7603;49.432;11.418;2023-05-21T03:22:09;13.88;;;12.77;;
15012;SDS011;7603;49.432;11.418;2023-05-21T03:24:37;16.25;;;12.60;;
15012;SDS011;7603;49.432;11.418;2023-05-21T03:27:03;14.27;;;12.98;;
15012;SDS011;7603;49.432;11.418;2023-05-21T03:29:30;15.15;;;13.68;;
15012;SDS011;7603;49.432;11.418;2023-05-21T03:31:56;14.40;;;13.27;;
15012;SDS011;7603;49.432;11.418;2023-05-21T03:34:22;14.95;;;13.50;;
15012;SDS011;7603;49.432;11.418;2023-05-21T03:36:48;15.18;;;13.77;;
15012;SDS011;7603;49.432;11.418;2023-05-21T03:39:14;16.30;;;14.65;;
15012;SDS011;7603;49.432;11.418;2023-05-21T03:41:40;14.77;;;13.48;;
15012;SDS011;7603;49.432;11.418;2023-05-21T03:44:06;14.82;;;13.65;;
15012;SDS011;7603;49.432;11.418;2023-05-21T03:46:31;15.52;;;13.48;;
15012;SDS011;7603;49.432;11.418;2023-05-21T03:48:57;15.18;;;13.88;;
15012;SDS011;7603;49.432;11.418;2023-05-21T03:51:23;15.73;;;13.25;;
15012;SDS011;7603;49.432;11.418;2023-05-21T03:53:49;15.38;;;14.07;;
15012;SDS011;7603;49.432;11.418;2023-05-21T03:56:16;15.73;;;14.38;;
15012;SDS011;7603;49.432;11.418;2023-05-21T03:58:41;14.82;;;13.68;;
15012;SDS011;7603;49.432;11.418;2023-05-21T04:01:07;16.25;;;14.82;;
15012;SDS011;7603;49.432;11.418;2023-05-21T04:03:33;16.70;;;15.10;;
15012;SDS011;7603;49.432;11.418;2023-05-21T04:05:59;15.30;;;13.73;;
15012;SDS011;7603;49.432;11.418;2023-05-21T04:08:25;16.65;;;15.23;;
15012;SDS011;7603;49.432;11.418;2023-05-21T04:10:51;16.67;;;15.30;;
15012;SDS011;7603;49.432;11.418;2023-05-21T04:13:16;15.15;;;13.82;;
15012;SDS011;7603;49.432;11.418;2023-05-21T04:15:42;15.75;;;14.45;;
15012;SDS011;7603;49.432;11.418;2023-05-21T04:18:10;17.50;;;15.73;;
15012;SDS011;7603;49.432;11.418;2023-05-21T04:20:42;16.67;;;15.27;;
15012;SDS011;7603;49.432;11.418;2023-05-21T04:23:08;16.38;;;14.77;;
15012;SDS011;7603;49.432;11.418;2023-05-21T04:25:34;15.82;;;14.38;;
15012;SDS011;7603;49.432;11.418;2023-05-21T04:28:00;16.25;;;14.85;;
15012;SDS011;7603;49.432;11.418;2023-05-21T04:30:26;16.88;;;14.52;;
15012;SDS011;7603;49.432;11.418;2023-05-21T04:32:51;16.75;;;15.23;;
15012;SDS011;7603;49.432;11.418;2023-05-21T04:35:18;16.40;;;14.73;;
15012;SDS011;7603;49.432;11.418;2023-05-21T04:37:44;15.13;;;13.82;;
15012;SDS011;7603;49.432;11.418;2023-05-21T04:40:10;16.55;;;14.93;;
15012;SDS011;7603;49.432;11.418;2023-05-21T04:42:42;16.50;;;14.95;;
15012;SDS011;7603;49.432;11.418;2023-05-21T04:45:09;16.42;;;14.77;;
15012;SDS011;7603;49.432;11.418;2023-05-21T04:47:35;16.10;;;14.68;;
15012;SDS011;7603;49.432;11.418;2023-05-21T04:50:01;16.38;;;14.63;;
15012;SDS011;7603;49.432;11.418;2023-05-21T04:52:28;17.27;;;15.60;;
15012;SDS011;7603;49.432;11.418;2023-05-21T04:54:55;17.52;;;15.88;;
15012;SDS011;7603;49.432;11.418;2023-05-21T04:57:21;15.77;;;14.35;;
15012;SDS011;7603;49.432;11.418;2023-05-21T04:59:49;16.42;;;14.95;;
15012;SDS011;7603;49.432;11.418;2023-05-21T05:02:14;16.58;;;15.15;;
15012;SDS011;7603;49.432;11.418;2023-05-21T05:04:40;15.70;;;14.20;;
15012;SDS011;7603;49.432;11.418;2023-05-21T05:07:07;16.25;;;14.85;;
15012;SDS011;7603;49.432;11.418;2023-05-21T05:09:33;15.73;;;14.27;;
15012;SDS011;7603;49.432;11.418;2023-05-21T05:11:59;15.10;;;13.82;;
15012;SDS011;7603;49.432;11.418;2023-05-21T05:14:25;16.02;;;14.52;;
15012;SDS011;7603;49.432;11.418;2023-05-21T05:16:51;19.27;;;17.58;;
15012;SDS011;7603;49.432;11.418;2023-05-21T05:19:18;16.95;;;15.48;;
15012;SDS011;7603;49.432;11.418;2023-05-21T05:21:44;19.40;;;14.35;;
15012;SDS011;7603;49.432;11.418;2023-05-21T05:24:10;13.80;;;12.73;;
15012;SDS011;7603;49.432;11.418;2023-05-21T05:26:36;15.65;;;14.18;;
15012;SDS011;7603;49.432;11.418;2023-05-21T05:29:04;13.98;;;12.77;;
15012;SDS011;7603;49.432;11.418;2023-05-21T05:31:30;14.52;;;13.05;;
15012;SDS011;7603;49.432;11.418;2023-05-21T05:33:57;15.00;;;13.60;;
15012;SDS011;7603;49.432;11.418;2023-05-21T05:36:24;13.98;;;12.77;;
15012;SDS011;7603;49.432;11.418;2023-05-21T05:38:51;14.20;;;13.00;;
15012;SDS011;7603;49.432;11.418;2023-05-21T05:41:17;14.68;;;13.55;;
15012;SDS011;7603;49.432;11.418;2023-05-21T05:43:43;14.18;;;12.95;;
15012;SDS011;7603;49.432;11.418;2023-05-21T05:46:08;15.27;;;13.27;;
15012;SDS011;7603;49.432;11.418;2023-05-21T05:48:34;14.30;;;13.00;;
15012;SDS011;7603;49.432;11.418;2023-05-21T05:51:00;12.35;;;11.43;;
15012;SDS011;7603;49.432;11.418;2023-05-21T05:53:25;13.80;;;12.60;;
15012;SDS011;7603;49.432;11.418;2023-05-21T05:55:51;12.32;;;11.27;;
15012;SDS011;7603;49.432;11.418;2023-05-21T05:58:17;12.20;;;11.00;;
15012;SDS011;7603;49.432;11.418;2023-05-21T06:00:43;11.98;;;11.07;;
15012;SDS011;7603;49.432;11.418;2023-05-21T06:03:08;12.20;;;11.30;;
15012;SDS011;7603;49.432;11.418;2023-05-21T06:05:35;12.75;;;11.60;;
15012;SDS011;7603;49.432;11.418;2023-05-21T06:08:01;13.45;;;12.35;;
15012;SDS011;7603;49.432;11.418;2023-05-21T06:10:27;13.43;;;11.88;;
15012;SDS011;7603;49.432;11.418;2023-05-21T06:12:52;12.93;;;11.52;;
15012;SDS011;7603;49.432;11.418;2023-05-21T06:15:18;17.63;;;11.25;;
15012;SDS011;7603;49.432;11.418;2023-05-21T06:17:44;11.52;;;10.70;;
15012;SDS011;7603;49.432;11.418;2023-05-21T06:20:11;11.68;;;10.77;;
15012;SDS011;7603;49.432;11.418;2023-05-21T06:22:37;11.90;;;10.95;;
15012;SDS011;7603;49.432;11.418;2023-05-21T06:25:03;12.48;;;11.38;;
15012;SDS011;7603;49.432;11.418;2023-05-21T06:27:31;13.88;;;11.52;;
15012;SDS011;7603;49.432;11.418;2023-05-21T06:29:58;12.07;;;11.07;;
15012;SDS011;7603;49.432;11.418;2023-05-21T06:32:25;11.60;;;10.80;;
15012;SDS011;7603;49.432;11.418;2023-05-21T06:34:51;12.20;;;11.27;;
15012;SDS011;7603;49.432;11.418;2023-05-21T06:37:22;12.02;;;10.93;;
15012;SDS011;7603;49.432;11.418;2023-05-21T06:39:48;11.57;;;10.48;;
15012;SDS011;7603;49.432;11.418;2023-05-21T06:42:15;21.80;;;19.58;;
15012;SDS011;7603;49.432;11.418;2023-05-21T06:44:41;46.15;;;31.30;;
15012;SDS011;7603;49.432;11.418;2023-05-21T06:47:08;23.27;;;14.68;;
15012;SDS011;7603;49.432;11.418;2023-05-21T06:49:36;16.42;;;13.75;;
15012;SDS011;7603;49.432;11.418;2023-05-21T06:52:04;14.18;;;12.95;;
15012;SDS011;7603;49.432;11.418;2023-05-21T06:54:30;13.32;;;11.80;;
15012;SDS011;7603;49.432;11.418;2023-05-21T06:56:57;19.67;;;12.40;;
15012;SDS011;7603;49.432;11.418;2023-05-21T06:59:23;11.85;;;10.85;;
15012;SDS011;7603;49.432;11.418;2023-05-21T07:01:54;11.60;;;10.50;;
15012;SDS011;7603;49.432;11.418;2023-05-21T07:04:20;12.68;;;11.40;;
15012;SDS011;7603;49.432;11.418;2023-05-21T07:06:46;20.58;;;18.50;;
15012;SDS011;7603;49.432;11.418;2023-05-21T07:09:12;15.80;;;14.63;;
15012;SDS011;7603;49.432;11.418;2023-05-21T07:11:39;16.40;;;14.70;;
15012;SDS011;7603;49.432;11.418;2023-05-21T07:14:07;14.68;;;13.52;;
15012;SDS011;7603;49.432;11.418;2023-05-21T07:16:33;19.42;;;17.63;;
15012;SDS011;7603;49.432;11.418;2023-05-21T07:19:00;19.92;;;18.23;;
15012;SDS011;7603;49.432;11.418;2023-05-21T07:21:27;15.13;;;13.93;;
15012;SDS011;7603;49.432;11.418;2023-05-21T07:23:53;16.38;;;14.98;;
15012;SDS011;7603;49.432;11.418;2023-05-21T07:26:20;18.55;;;16.67;;
15012;SDS011;7603;49.432;11.418;2023-05-21T07:28:46;21.50;;;19.42;;
15012;SDS011;7603;49.432;11.418;2023-05-21T07:31:12;19.77;;;18.00;;
15012;SDS011;7603;49.432;11.418;2023-05-21T07:33:38;19.92;;;18.00;;
15012;SDS011;7603;49.432;11.418;2023-05-21T07:36:04;22.63;;;20.58;;
15012;SDS011;7603;49.432;11.418;2023-05-21T07:38:29;14.98;;;13.68;;
15012;SDS011;7603;49.432;11.418;2023-05-21T07:40:56;17.45;;;15.95;;
15012;SDS011;7603;49.432;11.418;2023-05-21T07:43:21;14.27;;;13.10;;
15012;SDS011;7603;49.432;11.418;2023-05-21T07:45:48;15.15;;;13.85;;
15012;SDS011;7603;49.432;11.418;2023-05-21T07:48:13;14.05;;;13.00;;
15012;SDS011;7603;49.432;11.418;2023-05-21T07:50:39;13.48;;;12.23;;
15012;SDS011;7603;49.432;11.418;2023-05-21T07:53:05;15.65;;;14.35;;
15012;SDS011;7603;49.432;11.418;2023-05-21T07:55:31;11.80;;;10.82;;
15012;SDS011;7603;49.432;11.418;2023-05-21T07:57:56;16.65;;;15.15;;
15012;SDS011;7603;49.432;11.418;2023-05-21T08:00:22;13.82;;;12.65;;
15012;SDS011;7603;49.432;11.418;2023-05-21T08:02:48;12.18;;;11.15;;
15012;SDS011;7603;49.432;11.418;2023-05-21T08:05:16;12.15;;;11.02;;
15012;SDS011;7603;49.432;11.418;2023-05-21T08:07:41;12.18;;;11.27;;
15012;SDS011;7603;49.432;11.418;2023-05-21T08:10:07;12.57;;;11.57;;
15012;SDS011;7603;49.432;11.418;2023-05-21T08:12:33;12.57;;;11.45;;
15012;SDS011;7603;49.432;11.418;2023-05-21T08:14:59;13.82;;;12.68;;
15012;SDS011;7603;49.432;11.418;2023-05-21T08:17:25;12.60;;;11.70;;
15012;SDS011;7603;49.432;11.418;2023-05-21T08:19:52;15.60;;;14.23;;
15012;SDS011;7603;49.432;11.418;2023-05-21T08:22:18;21.60;;;19.48;;
15012;SDS011;7603;49.432;11.418;2023-05-21T08:24:43;21.48;;;19.58;;
15012;SDS011;7603;49.432;11.418;2023-05-21T08:27:09;15.68;;;14.38;;
15012;SDS011;7603;49.432;11.418;2023-05-21T08:29:35;12.43;;;11.50;;
15012;SDS011;7603;49.432;11.418;2023-05-21T08:32:03;13.35;;;12.18;;
15012;SDS011;7603;49.432;11.418;2023-05-21T08:34:29;11.75;;;10.88;;
15012;SDS011;7603;49.432;11.418;2023-05-21T08:36:56;13.65;;;12.60;;
15012;SDS011;7603;49.432;11.418;2023-05-21T08:39:22;12.20;;;11.07;;
15012;SDS011;7603;49.432;11.418;2023-05-21T08:41:54;11.88;;;10.63;;
15012;SDS011;7603;49.432;11.418;2023-05-21T08:44:30;12.55;;;10.23;;
15012;SDS011;7603;49.432;11.418;2023-05-21T08:47:01;13.35;;;12.45;;
15012;SDS011;7603;49.432;11.418;2023-05-21T08:49:33;12.30;;;11.27;;
15012;SDS011;7603;49.432;11.418;2023-05-21T08:52:00;14.80;;;13.50;;
15012;SDS011;7603;49.432;11.418;2023-05-21T08:54:27;11.20;;;10.48;;
15012;SDS011;7603;49.432;11.418;2023-05-21T08:56:54;10.90;;;10.20;;
15012;SDS011;7603;49.432;11.418;2023-05-21T08:59:22;12.02;;;11.02;;
15012;SDS011;7603;49.432;11.418;2023-05-21T09:01:50;10.55;;;9.55;;
15012;SDS011;7603;49.432;11.418;2023-05-21T09:04:17;10.77;;;10.02;;
15012;SDS011;7603;49.432;11.418;2023-05-21T09:06:43;11.80;;;10.77;;
15012;SDS011;7603;49.432;11.418;2023-05-21T09:09:16;11.48;;;10.35;;
15012;SDS011;7603;49.432;11.418;2023-05-21T09:11:51;11.30;;;10.25;;
15012;SDS011;7603;49.432;11.418;2023-05-21T09:14:17;10.18;;;9.25;;
15012;SDS011;7603;49.432;11.418;2023-05-21T09:16:45;12.82;;;11.77;;
15012;SDS011;7603;49.432;11.418;2023-05-21T09:19:14;10.63;;;9.60;;
15012;SDS011;7603;49.432;11.418;2023-05-21T09:21:42;16.05;;;14.82;;
15012;SDS011;7603;49.432;11.418;2023-05-21T09:24:09;12.30;;;11.40;;
15012;SDS011;7603;49.432;11.418;2023-05-21T09:26:42;11.52;;;8.93;;
15012;SDS011;7603;49.432;11.418;2023-05-21T09:29:11;8.55;;;7.93;;
15012;SDS011;7603;49.432;11.418;2023-05-21T09:31:41;9.05;;;8.35;;
15012;SDS011;7603;49.432;11.418;2023-05-21T09:34:11;10.13;;;9.23;;
15012;SDS011;7603;49.432;11.418;2023-05-21T09:36:40;8.60;;;7.75;;
15012;SDS011;7603;49.432;11.418;2023-05-21T09:39:11;12.27;;;8.32;;
15012;SDS011;7603;49.432;11.418;2023-05-21T09:41:56;8.65;;;7.95;;
15012;SDS011;7603;49.432;11.418;2023-05-21T09:44:23;7.80;;;7.30;;
15012;SDS011;7603;49.432;11.418;2023-05-21T09:46:49;8.25;;;7.65;;
15012;SDS011;7603;49.432;11.418;2023-05-21T09:49:23;8.10;;;7.38;;
15012;SDS011;7603;49.432;11.418;2023-05-21T09:51:56;8.63;;;7.70;;
15012;SDS011;7603;49.432;11.418;2023-05-21T09:54:23;9.43;;;8.52;;
15012;SDS011;7603;49.432;11.418;2023-05-21T09:56:50;10.18;;;7.85;;
15012;SDS011;7603;49.432;11.418;2023-05-21T09:59:19;8.20;;;7.70;;
15012;SDS011;7603;49.432;11.418;2023-05-21T10:01:45;10.05;;;9.27;;
15012;SDS011;7603;49.432;11.418;2023-05-21T10:04:13;11.15;;;10.05;;
15012;SDS011;7603;49.432;11.418;2023-05-21T10:06:42;8.35;;;7.85;;
15012;SDS011;7603;49.432;11.418;2023-05-21T10:09:08;9.63;;;8.80;;
15012;SDS011;7603;49.432;11.418;2023-05-21T10:11:35;11.55;;;10.65;;
15012;SDS011;7603;49.432;11.418;2023-05-21T10:14:05;8.50;;;8.00;;
15012;SDS011;7603;49.432;11.418;2023-05-21T10:16:33;10.38;;;9.52;;
15012;SDS011;7603;49.432;11.418;2023-05-21T10:19:00;10.20;;;9.40;;
15012;SDS011;7603;49.432;11.418;2023-05-21T10:21:26;9.20;;;8.52;;
15012;SDS011;7603;49.432;11.418;2023-05-21T10:23:52;14.48;;;8.45;;
15012;SDS011;7603;49.432;11.418;2023-05-21T10:26:22;8.93;;;8.15;;
15012;SDS011;7603;49.432;11.418;2023-05-21T10:28:49;24.88;;;22.17;;
15012;SDS011;7603;49.432;11.418;2023-05-21T10:31:15;15.70;;;13.88;;
15012;SDS011;7603;49.432;11.418;2023-05-21T10:33:42;8.38;;;7.78;;
15012;SDS011;7603;49.432;11.418;2023-05-21T10:36:07;45.72;;;41.60;;
15012;SDS011;7603;49.432;11.418;2023-05-21T10:38:34;10.60;;;7.85;;
15012;SDS011;7603;49.432;11.418;2023-05-21T10:41:01;8.98;;;8.32;;
15012;SDS011;7603;49.432;11.418;2023-05-21T10:48:59;8.02;;;7.32;;
15012;SDS011;7603;49.432;11.418;2023-05-21T10:52:02;9.50;;;8.65;;
15012;SDS011;7603;49.432;11.418;2023-05-21T10:57:43;8.85;;;8.05;;
15012;SDS011;7603;49.432;11.418;2023-05-21T11:00:35;11.55;;;10.60;;
15012;SDS011;7603;49.432;11.418;2023-05-21T11:03:00;12.70;;;11.70;;
15012;SDS011;7603;49.432;11.418;2023-05-21T11:05:40;8.60;;;7.85;;
15012;SDS011;7603;49.432;11.418;2023-05-21T11:08:28;7.05;;;6.55;;
15012;SDS011;7603;49.432;11.418;2023-05-21T11:11:00;7.57;;;6.97;;
15012;SDS011;7603;49.432;11.418;2023-05-21T11:13:27;7.40;;;6.70;;
15012;SDS011;7603;49.432;11.418;2023-05-21T11:21:03;8.18;;;7.30;;
15012;SDS011;7603;49.432;11.418;2023-05-21T11:26:17;7.10;;;6.40;;
15012;SDS011;7603;49.432;11.418;2023-05-21T11:28:45;6.30;;;6.00;;
15012;SDS011;7603;49.432;11.418;2023-05-21T11:31:31;6.30;;;5.88;;
15012;SDS011;7603;49.432;11.418;2023-05-21T11:36:38;6.30;;;5.68;;
15012;SDS011;7603;49.432;11.418;2023-05-21T11:39:18;6.93;;;6.32;;
15012;SDS011;7603;49.432;11.418;2023-05-21T11:41:57;6.13;;;5.65;;
15012;SDS011;7603;49.432;11.418;2023-05-21T11:44:39;6.38;;;5.97;;
15012;SDS011;7603;49.432;11.418;2023-05-21T11:47:05;5.47;;;5.07;;
15012;SDS011;7603;49.432;11.418;2023-05-21T11:49:35;5.75;;;5.18;;
15012;SDS011;7603;49.432;11.418;2023-05-21T11:52:05;5.70;;;5.35;;
15012;SDS011;7603;49.432;11.418;2023-05-21T11:54:32;6.38;;;5.97;;
15012;SDS011;7603;49.432;11.418;2023-05-21T11:57:05;5.70;;;5.15;;
15012;SDS011;7603;49.432;11.418;2023-05-21T11:59:32;5.28;;;4.88;;
15012;SDS011;7603;49.432;11.418;2023-05-21T12:01:58;5.32;;;5.03;;
15012;SDS011;7603;49.432;11.418;2023-05-21T12:04:30;6.07;;;4.95;;
15012;SDS011;7603;49.432;11.418;2023-05-21T12:07:03;4.88;;;4.55;;
15012;SDS011;7603;49.432;11.418;2023-05-21T12:09:45;5.55;;;5.13;;
15012;SDS011;7603;49.432;11.418;2023-05-21T12:12:16;4.85;;;4.65;;
15012;SDS011;7603;49.432;11.418;2023-05-21T12:14:43;5.35;;;4.95;;
15012;SDS011;7603;49.432;11.418;2023-05-21T12:17:14;5.32;;;5.03;;
15012;SDS011;7603;49.432;11.418;2023-05-21T12:19:41;8.60;;;7.70;;
15012;SDS011;7603;49.432;11.418;2023-05-21T12:22:07;6.57;;;5.97;;
15012;SDS011;7603;49.432;11.418;2023-05-21T12:24:34;6.00;;;5.50;;
15012;SDS011;7603;49.432;11.418;2023-05-21T12:27:01;5.88;;;5.40;;
15012;SDS011;7603;49.432;11.418;2023-05-21T12:29:33;7.70;;;5.55;;
15012;SDS011;7603;49.432;11.418;2023-05-21T12:32:03;8.38;;;5.47;;
15012;SDS011;7603;49.432;11.418;2023-05-21T12:34:36;7.93;;;7.05;;
15012;SDS011;7603;49.432;11.418;2023-05-21T12:37:04;5.25;;;4.80;;
15012;SDS011;7603;49.432;11.418;2023-05-21T12:39:32;4.72;;;4.32;;
15012;SDS011;7603;49.432;11.418;2023-05-21T12:42:01;4.97;;;4.57;;
15012;SDS011;7603;49.432;11.418;2023-05-21T12:44:29;5.05;;;4.68;;
15012;SDS011;7603;49.432;11.418;2023-05-21T12:46:55;4.90;;;4.50;;
15012;SDS011;7603;49.432;11.418;2023-05-21T12:49:35;4.57;;;4.28;;
15012;SDS011;7603;49.432;11.418;2023-05-21T12:52:12;5.78;;;5.25;;
15012;SDS011;7603;49.432;11.418;2023-05-21T12:54:44;5.28;;;4.55;;
15012;SDS011;7603;49.432;11.418;2023-05-21T12:59:56;4.57;;;4.30;;
15012;SDS011;7603;49.432;11.418;2023-05-21T13:02:24;5.07;;;4.68;;
15012;SDS011;7603;49.432;11.418;2023-05-21T13:04:57;4.88;;;4.65;;
15012;SDS011;7603;49.432;11.418;2023-05-21T13:07:25;4.65;;;4.35;;
15012;SDS011;7603;49.432;11.418;2023-05-21T13:09:53;5.05;;;4.57;;
15012;SDS011;7603;49.432;11.418;2023-05-21T13:12:20;4.57;;;4.35;;
15012;SDS011;7603;49.432;11.418;2023-05-21T13:14:46;4.68;;;4.47;;
15012;SDS011;7603;49.432;11.418;2023-05-21T13:17:16;6.90;;;4.80;;
15012;SDS011;7603;49.432;11.418;2023-05-21T13:22:42;4.93;;;4.28;;
15012;SDS011;7603;49.432;11.418;2023-05-21T13:25:13;4.78;;;4.38;;
15012;SDS011;7603;49.432;11.418;2023-05-21T13:27:40;4.93;;;4.60;;
15012;SDS011;7603;49.432;11.418;2023-05-21T13:30:07;4.63;;;4.38;;
15012;SDS011;7603;49.432;11.418;2023-05-21T13:32:33;4.85;;;4.45;;
15012;SDS011;7603;49.432;11.418;2023-05-21T13:34:59;5.18;;;4.57;;
15012;SDS011;7603;49.432;11.418;2023-05-21T13:37:28;5.28;;;4.30;;
15012;SDS011;7603;49.432;11.418;2023-05-21T13:39:54;5.70;;;4.20;;
15012;SDS011;7603;49.432;11.418;2023-05-21T13:42:20;4.53;;;4.22;;
15012;SDS011;7603;49.432;11.418;2023-05-21T13:44:47;4.43;;;4.22;;
15012;SDS011;7603;49.432;11.418;2023-05-21T13:47:13;4.50;;;4.10;;
15012;SDS011;7603;49.432;11.418;2023-05-21T13:49:39;5.00;;;4.60;;
15012;SDS011;7603;49.432;11.418;2023-05-21T13:52:05;4.38;;;4.18;;
15012;SDS011;7603;49.432;11.418;2023-05-21T13:54:32;5.68;;;3.95;;
15012;SDS011;7603;49.432;11.418;2023-05-21T13:56:57;4.47;;;4.18;;
15012;SDS011;7603;49.432;11.418;2023-05-21T13:59:23;4.30;;;4.00;;
15012;SDS011;7603;49.432;11.418;2023-05-21T14:01:49;4.35;;;4.03;;
15012;SDS011;7603;49.432;11.418;2023-05-21T14:04:18;4.35;;;4.15;;
15012;SDS011;7603;49.432;11.418;2023-05-21T14:06:44;4.45;;;4.15;;
15012;SDS011;7603;49.432;11.418;2023-05-21T14:09:10;4.43;;;4.13;;
15012;SDS011;7603;49.432;11.418;2023-05-21T14:11:36;4.43;;;4.20;;
15012;SDS011;7603;49.432;11.418;2023-05-21T14:14:02;4.40;;;4.10;;
15012;SDS011;7603;49.432;11.418;2023-05-21T14:16:28;4.60;;;4.25;;
15012;SDS011;7603;49.432;11.418;2023-05-21T14:18:57;4.97;;;4.68;;
15012;SDS011;7603;49.432;11.418;2023-05-21T14:21:23;5.28;;;4.80;;
15012;SDS011;7603;49.432;11.418;2023-05-21T14:23:49;6.82;;;5.07;;
15012;SDS011;7603;49.432;11.418;2023-05-21T14:26:15;6.32;;;4.90;;
15012;SDS011;7603;49.432;11.418;2023-05-21T14:28:42;8.85;;;4.50;;
15012;SDS011;7603;49.432;11.418;2023-05-21T14:31:08;4.50;;;4.00;;
15012;SDS011;7603;49.432;11.418;2023-05-21T14:33:35;4.13;;;3.85;;
15012;SDS011;7603;49.432;11.418;2023-05-21T14:36:01;4.22;;;4.00;;
15012;SDS011;7603;49.432;11.418;2023-05-21T14:38:28;4.70;;;4.40;;
15012;SDS011;7603;49.432;11.418;2023-05-21T14:40:54;4.35;;;4.13;;
15012;SDS011;7603;49.432;11.418;2023-05-21T14:43:20;4.38;;;4.18;;
15012;SDS011;7603;49.432;11.418;2023-05-21T14:45:47;4.68;;;4.38;;
15012;SDS011;7603;49.432;11.418;2023-05-21T14:48:15;4.38;;;4.07;;
15012;SDS011;7603;49.432;11.418;2023-05-21T14:50:42;4.43;;;4.13;;
15012;SDS011;7603;49.432;11.418;2023-05-21T14:53:08;4.50;;;4.20;;
15012;SDS011;7603;49.432;11.418;2023-05-21T14:55:35;4.70;;;4.28;;
15012;SDS011;7603;49.432;11.418;2023-05-21T14:58:02;5.05;;;4.43;;
15012;SDS011;7603;49.432;11.418;2023-05-21T15:00:29;5.72;;;4.03;;
15012;SDS011;7603;49.432;11.418;2023-05-21T15:02:56;4.88;;;4.63;;